Latest Weather Observations for Adelaide Airport

IDS60801

Issued at 8:01 am CDT Tuesday 7 December 2021 (issued every 10 minutes, with the page automatically refreshed every 10 minutes)

About weather observations | Map of weather stations | Latest weather observations for SA | Other Formats
Station Details ID: 023034 Name: ADELAIDE AIRPORT Lat: -34.95 Lon: 138.52 Height: 2.0 m
Data from the previous 72 hours. | See also: Recent months at Adelaide Airport
Date/Time
CDT
Temp
°C
App
Temp
°C
Dew
Point
°C
Rel
Hum
%
Delta-T
°C
Wind Press
QNH
hPa
Press
MSL
hPa
Rain since
9am
mm
Dir  Spd
km/h
Gust
km/h
Spd
kts
Gust
kts
07/07:30am 14.6 9.9 9.4 71 2.7 SSW 24 35 13 19 1015.8 1015.8 0.2
07/07:00am 14.6 11.6 10.6 77 2.1 S 17 26 9 14 1015.5 1015.5 0.2
07/06:30am 14.1 11.1 10.7 80 1.8 S 17 22 9 12 1015.2 1015.2 0.2
07/06:00am 13.8 10.9 11.1 84 1.4 S 17 24 9 13 1015.0 1015.0 0.2
07/05:30am 13.7 10.5 11.9 89 1.0 S 20 28 11 15 1014.6 1014.6 0.2
07/05:14am 13.7 10.6 12.3 91 0.8 S 20 28 11 15 1014.5 1014.5 0.2
07/05:10am 13.8 10.9 12.4 91 0.8 S 19 28 10 15 1014.5 1014.5 0.2
07/05:00am 14.1 12.5 12.8 92 0.7 S 13 19 7 10 1014.3 1014.3 0.0
07/04:59am 14.0 12.4 12.7 92 0.7 S 13 19 7 10 1014.3 1014.3 0.0
07/04:44am 14.7 12.4 12.9 89 1.0 SSW 17 22 9 12 1014.1 1014.1 0.0
07/04:30am 14.9 13.8 11.9 82 1.6 S 9 15 5 8 1014.0 1014.0 0.0
07/04:00am 14.7 12.7 11.5 81 1.7 SSE 13 15 7 8 1013.9 1013.9 0.0
07/03:30am 14.7 13.2 10.7 77 2.1 SSE 9 13 5 7 1013.8 1013.8 0.0
07/03:00am 14.2 12.7 10.4 78 2.0 SSE 9 13 5 7 1013.7 1013.7 0.0
07/02:30am 14.8 12.9 10.4 75 2.3 SSE 11 13 6 7 1013.8 1013.8 0.0
07/02:00am 14.7 12.8 10.5 76 2.2 SSE 11 13 6 7 1014.1 1014.1 0.0
07/01:30am 14.0 11.9 9.8 76 2.2 S 11 15 6 8 1014.3 1014.3 0.0
07/01:00am 14.5 11.7 9.9 74 2.4 S 15 17 8 9 1014.4 1014.4 0.0
07/12:30am 14.6 12.5 9.6 72 2.6 S 11 15 6 8 1014.6 1014.6 0.0
07/12:00am 14.8 12.3 9.6 71 2.7 SSE 13 17 7 9 1014.5 1014.5 0.0
 
Date/Time
CDT
Temp
°C
App
Temp
°C
Dew
Point
°C
Rel
Hum
%
Delta-T
°C
Wind Press
QNH
hPa
Press
MSL
hPa
Rain since
9am
mm
Dir  Spd
km/h
Gust
km/h
Spd
kts
Gust
kts
06/11:30pm 15.1 12.2 9.5 69 2.9 SSE 15 17 8 9 1014.5 1014.5 0.0
06/11:00pm 15.5 12.5 9.2 66 3.2 S 15 22 8 12 1014.3 1014.3 0.0
06/10:30pm 16.1 12.7 9.3 64 3.5 S 17 26 9 14 1014.3 1014.3 0.0
06/10:00pm 16.8 12.9 9.5 62 3.8 S 20 32 11 17 1013.9 1013.9 0.0
06/09:30pm 17.5 13.9 10.4 63 3.8 S 20 33 11 18 1013.3 1013.3 0.0
06/09:00pm 18.0 14.7 10.9 63 3.8 SSW 19 28 10 15 1013.1 1013.1 0.0
06/08:30pm 18.2 14.4 11.3 64 3.8 SSW 22 30 12 16 1012.7 1012.7 0.0
06/08:00pm 18.7 15.0 11.5 63 3.9 SSW 22 33 12 18 1012.5 1012.5 0.0
06/07:30pm 19.2 16.1 12.2 64 3.9 SW 20 28 11 15 1012.2 1012.2 0.0
06/07:00pm 19.6 15.3 12.1 62 4.2 SW 26 33 14 18 1012.2 1012.2 0.0
06/06:30pm 19.5 15.1 11.8 61 4.3 SW 26 37 14 20 1011.9 1011.9 0.0
06/06:00pm 19.9 16.8 13.4 66 3.7 SW 22 32 12 17 1011.7 1011.7 0.0
06/05:30pm 19.9 15.9 12.9 64 4.0 SW 26 33 14 18 1011.6 1011.6 0.0
06/05:00pm 19.6 14.5 13.1 66 3.7 SW 32 37 17 20 1011.8 1011.8 0.0
06/04:30pm 20.5 16.6 13.2 63 4.2 SW 26 35 14 19 1011.7 1011.7 0.0
06/04:00pm 20.5 15.9 13.5 64 4.0 SW 30 39 16 21 1011.7 1011.7 0.0
06/03:30pm 20.8 16.4 14.0 65 3.9 SW 30 37 16 20 1011.7 1011.7 0.0
06/03:00pm 20.9 16.4 12.6 59 4.7 SW 28 33 15 18 1011.8 1011.8 0.0
06/02:30pm 20.9 16.3 13.4 62 4.3 SSW 30 37 16 20 1012.1 1012.1 0.0
06/02:00pm 20.9 15.9 12.3 58 4.8 SW 30 37 16 20 1012.2 1012.2 0.0
06/01:30pm 21.0 17.9 13.4 62 4.4 SW 22 30 12 16 1012.0 1012.0 0.0
06/01:00pm 20.6 17.3 12.8 61 4.4 SW 22 32 12 17 1012.1 1012.1 0.0
06/12:30pm 20.7 17.9 13.2 62 4.3 SW 20 26 11 14 1012.4 1012.4 0.0
06/12:00pm 20.2 17.0 13.2 64 4.0 SW 22 28 12 15 1012.4 1012.4 0.0
06/11:30am 19.9 15.7 12.4 62 4.2 SW 26 30 14 16 1012.4 1012.4 0.0
06/11:00am 20.7 18.1 13.9 65 3.9 WSW 20 28 11 15 1012.5 1012.5 0.0
06/10:30am 20.6 18.2 12.8 61 4.4 W 17 22 9 12 1012.4 1012.4 0.0
06/10:00am 22.2 19.7 9.7 45 6.8 WSW 13 19 7 10 1012.5 1012.5 0.0
06/09:30am 21.6 20.3 10.1 48 6.2 N 7 11 4 6 1012.6 1012.6 0.0
06/09:00am 22.1 20.6 9.3 44 6.9 NW 7 9 4 5 1012.8 1012.8 0.0
06/08:30am 20.6 19.0 8.9 47 6.2 NW 7 9 4 5 1012.7 1012.7 0.0
06/08:00am 20.1 18.4 9.7 51 5.6 NE 9 9 5 5 1012.7 1012.7 0.0
06/07:30am 18.4 17.9 9.5 56 4.7 ENE 2 9 1 5 1012.4 1012.4 0.0
06/07:00am 16.4 15.5 9.3 63 3.7 NE 4 7 2 4 1012.3 1012.3 0.0
06/06:30am 13.7 11.7 8.5 71 2.6 NE 9 11 5 6 1012.2 1012.2 0.0
06/06:00am 13.1 11.4 8.2 72 2.4 NE 7 9 4 5 1012.2 1012.2 0.0
06/05:30am 13.7 11.6 8.1 69 2.8 ENE 9 11 5 6 1012.1 1012.1 0.0
06/05:00am 13.3 11.5 8.0 70 2.6 ESE 7 9 4 5 1012.0 1012.0 0.0
06/04:30am 13.6 11.7 7.6 67 2.9 ENE 7 9 4 5 1012.1 1012.1 0.0
06/04:00am 14.1 12.2 7.4 64 3.3 ENE 7 7 4 4 1012.1 1012.1 0.0
06/03:30am 13.9 13.3 7.2 64 3.3 CALM 0 0 0 0 1012.1 1012.1 0.0
06/03:00am 15.0 14.3 7.1 59 3.9 CALM 0 0 0 0 1012.3 1012.3 0.0
06/02:30am 15.7 15.1 7.2 57 4.2 CALM 0 0 0 0 1012.1 1012.1 0.0
06/02:00am 16.6 14.6 7.0 53 4.8 SW 7 7 4 4 1012.3 1012.3 0.0
06/01:30am 16.3 14.8 7.0 54 4.6 SSW 4 7 2 4 1012.5 1012.5 0.0
06/01:00am 16.6 15.1 7.0 53 4.8 S 4 6 2 3 1012.9 1012.9 0.0
06/12:30am 16.6 14.3 7.3 54 4.6 S 9 11 5 6 1013.4 1013.4 0.0
06/12:00am 17.1 14.4 7.2 52 4.9 SSE 11 13 6 7 1013.8 1013.8 0.0
 
Date/Time
CDT
Temp
°C
App
Temp
°C
Dew
Point
°C
Rel
Hum
%
Delta-T
°C
Wind Press
QNH
hPa
Press
MSL
hPa
Rain since
9am
mm
Dir  Spd
km/h
Gust
km/h
Spd
kts
Gust
kts
05/11:30pm 16.8 14.3 8.0 56 4.5 SSE 11 13 6 7 1014.1 1014.1 0.0
05/11:00pm 17.0 14.2 8.4 57 4.4 SE 13 15 7 8 1014.3 1014.3 0.0
05/10:30pm 17.1 13.7 9.0 59 4.2 SE 17 22 9 12 1014.4 1014.4 0.0
05/10:00pm 17.4 14.0 9.1 58 4.3 SE 17 24 9 13 1014.5 1014.5 0.0
05/09:30pm 18.2 14.5 9.3 56 4.7 ESE 19 24 10 13 1014.4 1014.4 0.0
05/09:00pm 18.7 15.4 9.5 55 4.8 SE 17 24 9 13 1014.6 1014.6 0.0
05/08:30pm 19.3 16.1 10.0 55 5.0 SE 17 22 9 12 1014.6 1014.6 0.0
05/08:00pm 19.8 17.0 10.0 53 5.3 SE 15 22 8 12 1014.5 1014.5 0.0
05/07:30pm 21.0 17.8 9.9 49 6.0 SE 17 24 9 13 1014.3 1014.3 0.0
05/07:00pm 22.4 18.9 10.9 48 6.4 SSE 20 28 11 15 1014.1 1014.1 0.0
05/06:30pm 22.4 19.3 10.2 46 6.7 SE 17 26 9 14 1014.1 1014.1 0.0
05/06:00pm 22.8 18.1 10.6 46 6.7 SE 26 33 14 18 1014.1 1014.1 0.0
05/05:30pm 22.0 18.7 13.9 60 4.7 SW 24 32 13 17 1014.3 1014.3 0.0
05/05:00pm 21.6 17.6 13.0 58 4.9 SW 26 33 14 18 1014.7 1014.7 0.0
05/04:30pm 21.2 17.7 12.1 56 5.1 SW 22 30 12 16 1015.1 1015.1 0.0
05/04:00pm 21.5 16.7 10.3 49 6.1 SSW 26 33 14 18 1015.6 1015.6 0.0
05/03:30pm 20.5 15.8 12.0 58 4.7 SW 28 35 15 19 1016.2 1016.2 0.0
05/03:00pm 21.1 17.0 11.4 54 5.4 SSW 24 32 13 17 1016.8 1016.8 0.0
05/02:30pm 20.0 15.6 11.8 59 4.5 SW 26 32 14 17 1017.2 1017.2 0.0
05/02:00pm 20.5 16.0 11.4 56 5.0 WSW 26 30 14 16 1017.8 1017.8 0.0
05/01:30pm 19.4 14.1 11.2 59 4.5 WSW 30 33 16 18 1017.9 1017.9 0.0
05/01:00pm 19.0 14.3 10.6 58 4.5 SW 26 30 14 16 1018.0 1018.0 0.0
05/12:30pm 19.0 14.7 10.8 59 4.4 SW 24 30 13 16 1018.2 1018.2 0.0
05/12:00pm 19.2 15.8 10.5 57 4.7 WSW 19 26 10 14 1018.4 1018.4 0.0
05/11:30am 19.3 16.3 10.8 58 4.6 WSW 17 22 9 12 1018.9 1018.9 0.0
05/11:00am 18.3 15.4 10.9 62 4.0 WSW 17 24 9 13 1019.4 1019.4 0.0
05/10:30am 17.9 15.1 10.0 60 4.2 WSW 15 20 8 11 1019.9 1019.9 0.0
05/10:00am 18.2 15.6 10.6 61 4.1 WSW 15 19 8 10 1020.3 1020.3 0.0
05/09:30am 17.4 15.0 10.1 62 3.9 SW 13 17 7 9 1020.8 1020.8 0.0
05/09:00am 17.8 16.8 10.2 61 4.0 N 6 11 3 6 1021.0 1021.0 0.0
05/08:30am 17.8 16.0 8.1 53 4.9 NE 7 11 4 6 1021.0 1021.0 0.0
05/08:00am 16.9 15.4 8.3 57 4.4 NW 6 13 3 7 1020.8 1020.8 0.0
05/07:30am 16.1 14.5 8.1 59 4.0 SE 6 11 3 6 1020.6 1020.6 0.0
05/07:00am 14.9 12.4 8.2 64 3.4 ESE 11 15 6 8 1020.4 1020.4 0.0
05/06:30am 13.9 10.7 8.5 70 2.7 ESE 15 19 8 10 1020.3 1020.3 0.0
05/06:00am 13.4 10.3 8.9 74 2.3 ESE 15 19 8 10 1020.1 1020.1 0.0
05/05:30am 13.5 10.2 9.7 78 1.9 ESE 17 26 9 14 1019.9 1019.9 0.0
05/05:00am 13.4 10.4 9.3 76 2.1 SE 15 20 8 11 1019.6 1019.6 0.0
05/04:30am 13.4 10.7 9.1 75 2.2 SE 13 19 7 10 1019.4 1019.4 0.0
05/04:00am 13.9 11.3 9.3 74 2.3 SE 13 19 7 10 1019.4 1019.4 0.0
05/03:30am 13.6 10.6 9.3 75 2.2 SE 15 20 8 11 1019.6 1019.6 0.0
05/03:00am 13.8 11.3 9.6 76 2.1 SE 13 19 7 10 1019.9 1019.9 0.0
05/02:30am 14.3 11.5 9.9 75 2.3 SE 15 22 8 12 1020.1 1020.1 0.0
05/02:00am 14.2 11.0 10.0 76 2.2 SSE 17 22 9 12 1020.0 1020.0 0.0
05/01:30am 14.2 10.6 9.8 75 2.3 SSE 19 24 10 13 1020.6 1020.6 0.0
05/01:00am 14.0 10.7 9.6 75 2.3 SSE 17 28 9 15 1021.1 1021.1 0.0
05/12:30am 13.6 10.2 9.3 75 2.2 SSE 17 20 9 11 1021.4 1021.4 0.0
05/12:00am 13.7 11.1 9.2 74 2.3 SSE 13 19 7 10 1022.0 1022.0 0.0
 
Date/Time
CDT
Temp
°C
App
Temp
°C
Dew
Point
°C
Rel
Hum
%
Delta-T
°C
Wind Press
QNH
hPa
Press
MSL
hPa
Rain since
9am
mm
Dir  Spd
km/h
Gust
km/h
Spd
kts
Gust
kts
04/11:30pm 14.2 11.6 9.2 72 2.5 SSE 13 17 7 9 1022.3 1022.3 0.0
04/11:00pm 14.3 11.3 9.1 71 2.6 S 15 19 8 10 1022.2 1022.2 0.0
04/10:30pm 14.8 11.8 9.2 69 2.9 S 15 19 8 10 1022.4 1022.4 0.0
04/10:00pm 15.0 11.0 8.9 67 3.1 SSE 20 28 11 15 1022.1 1022.1 0.0
04/09:30pm 15.4 11.9 8.6 64 3.4 SSE 17 28 9 15 1022.0 1022.0 0.0
04/09:00pm 16.0 11.9 8.0 59 4.0 S 19 28 10 15 1022.0 1022.0 0.0
04/08:30pm 16.6 11.6 8.1 57 4.3 SSE 24 32 13 17 1021.6 1021.6 0.0
04/08:00pm 17.7 13.5 8.3 54 4.8 SSE 20 30 11 16 1021.4 1021.4 0.0
04/07:30pm 18.6 14.0 8.0 50 5.4 S 22 30 12 16 1021.2 1021.2 0.0
04/07:00pm 19.7 15.5 8.4 48 5.9 S 20 30 11 16 1021.1 1021.1 0.0
04/06:30pm 19.5 16.5 10.5 56 4.8 S 17 22 9 12 1020.9 1020.9 0.0
04/06:00pm 19.7 13.7 10.1 54 5.1 SW 32 43 17 23 1020.4 1020.4 0.0
04/05:30pm 19.8 13.9 10.5 55 5.0 SW 32 39 17 21 1020.4 1020.4 0.0
04/05:00pm 19.9 13.2 9.5 51 5.5 SW 35 46 19 25 1020.7 1020.7 0.0
04/04:30pm 20.2 14.0 11.4 57 4.8 SW 35 44 19 24 1021.0 1021.0 0.0
04/04:00pm 19.5 12.3 10.5 56 4.9 SW 39 48 21 26 1021.5 1021.5 0.0
04/03:30pm 19.5 13.0 10.5 56 4.8 SW 35 46 19 25 1021.5 1021.5 0.0
04/03:00pm 19.5 12.3 10.5 56 4.8 WSW 39 46 21 25 1021.9 1021.9 0.0
04/02:30pm 20.4 14.3 10.5 53 5.4 SW 33 41 18 22 1021.8 1021.8 0.0
04/02:00pm 20.0 13.6 9.3 50 5.7 SW 33 43 18 23 1022.1 1022.1 0.0
04/01:30pm 19.3 12.1 9.2 52 5.3 SW 37 48 20 26 1022.6 1022.6 0.0
04/01:00pm 19.4 13.3 9.9 54 5.1 WSW 32 39 17 21 1022.9 1022.9 0.0
04/12:30pm 19.2 13.5 8.5 50 5.5 SW 28 35 15 19 1023.3 1023.3 0.0
04/12:00pm 18.8 13.6 8.7 52 5.2 SW 26 33 14 18 1023.5 1023.5 0.0
04/11:30am 19.5 14.8 7.9 47 5.9 SSE 22 32 12 17 1023.4 1023.4 0.0
04/11:00am 18.3 14.4 9.6 57 4.6 SSW 20 30 11 16 1023.3 1023.3 0.0
04/10:30am 17.2 13.0 8.4 56 4.5 SSW 20 32 11 17 1023.6 1023.6 0.0
04/10:00am 17.0 12.3 7.9 55 4.6 SSE 22 32 12 17 1023.6 1023.6 0.0
04/09:30am 17.6 13.3 7.1 50 5.2 S 19 28 10 15 1023.5 1023.5 0.0
04/09:00am 16.8 12.0 7.4 54 4.7 SSW 22 32 12 17 1023.7 1023.7 0.0
04/08:30am 16.4 12.4 8.4 59 4.1 SSW 19 26 10 14 1023.5 1023.5 0.0

Other formats

Comma delimited format used in spreadsheet applications
http://www.bom.gov.au/fwo/IDS60801/IDS60801.94672.axf

JavaScript Object Notation format (JSON) in row-major order
http://www.bom.gov.au/fwo/IDS60801/IDS60801.94672.json

Data quality

Most of these data are generated automatically and are frequently updated. Quality checks on data are not normally performed. It is possible for incorrect values to appear. Refer to information at About Latest Weather Observations and please check the disclaimer before using these data.